sensor_id;sensor_type;location;lat;lon;timestamp;P1;durP1;ratioP1;P2;durP2;ratioP2
56255;SDS011;57229;51.432;-2.598;2022-11-06T00:03:28;30.10;;;17.85;;
56255;SDS011;57229;51.432;-2.598;2022-11-06T00:06:44;23.98;;;16.67;;
56255;SDS011;57229;51.432;-2.598;2022-11-06T00:13:01;27.88;;;17.65;;
56255;SDS011;57229;51.432;-2.598;2022-11-06T00:33:26;25.88;;;18.10;;
56255;SDS011;57229;51.432;-2.598;2022-11-06T00:36:28;27.55;;;18.38;;
56255;SDS011;57229;51.432;-2.598;2022-11-06T00:39:11;28.17;;;17.90;;
56255;SDS011;57229;51.432;-2.598;2022-11-06T01:12:36;27.70;;;17.15;;
56255;SDS011;57229;51.432;-2.598;2022-11-06T01:15:45;26.63;;;16.85;;
56255;SDS011;57229;51.432;-2.598;2022-11-06T01:19:09;23.48;;;15.80;;
56255;SDS011;57229;51.432;-2.598;2022-11-06T01:29:03;24.52;;;15.68;;
56255;SDS011;57229;51.432;-2.598;2022-11-06T01:48:43;24.40;;;15.68;;
56255;SDS011;57229;51.432;-2.598;2022-11-06T01:54:48;24.73;;;15.43;;
56255;SDS011;57229;51.432;-2.598;2022-11-06T01:57:57;23.88;;;14.80;;
56255;SDS011;57229;51.432;-2.598;2022-11-06T02:01:03;23.95;;;15.23;;
56255;SDS011;57229;51.432;-2.598;2022-11-06T02:07:39;24.77;;;15.25;;
56255;SDS011;57229;51.432;-2.598;2022-11-06T02:10:54;23.60;;;14.98;;
56255;SDS011;57229;51.432;-2.598;2022-11-06T02:14:02;22.90;;;13.93;;
56255;SDS011;57229;51.432;-2.598;2022-11-06T02:44:53;21.63;;;13.05;;
56255;SDS011;57229;51.432;-2.598;2022-11-06T02:58:16;18.40;;;11.90;;
56255;SDS011;57229;51.432;-2.598;2022-11-06T03:01:10;17.95;;;11.07;;
56255;SDS011;57229;51.432;-2.598;2022-11-06T03:03:36;20.83;;;11.80;;
56255;SDS011;57229;51.432;-2.598;2022-11-06T03:06:11;16.42;;;10.68;;
56255;SDS011;57229;51.432;-2.598;2022-11-06T03:08:52;17.45;;;11.18;;
56255;SDS011;57229;51.432;-2.598;2022-11-06T03:11:31;17.25;;;10.65;;
56255;SDS011;57229;51.432;-2.598;2022-11-06T03:14:12;16.95;;;11.35;;
56255;SDS011;57229;51.432;-2.598;2022-11-06T03:16:52;18.42;;;11.70;;
56255;SDS011;57229;51.432;-2.598;2022-11-06T03:19:30;16.73;;;10.80;;
56255;SDS011;57229;51.432;-2.598;2022-11-06T03:22:30;21.00;;;11.25;;
56255;SDS011;57229;51.432;-2.598;2022-11-06T03:27:50;20.02;;;11.60;;
56255;SDS011;57229;51.432;-2.598;2022-11-06T03:30:37;14.77;;;10.48;;
56255;SDS011;57229;51.432;-2.598;2022-11-06T03:33:17;25.55;;;11.63;;
56255;SDS011;57229;51.432;-2.598;2022-11-06T03:40:48;21.98;;;10.95;;
56255;SDS011;57229;51.432;-2.598;2022-11-06T03:43:18;27.08;;;10.23;;
56255;SDS011;57229;51.432;-2.598;2022-11-06T03:45:48;20.35;;;9.90;;
56255;SDS011;57229;51.432;-2.598;2022-11-06T03:48:28;19.05;;;10.35;;
56255;SDS011;57229;51.432;-2.598;2022-11-06T03:53:27;17.83;;;10.10;;
56255;SDS011;57229;51.432;-2.598;2022-11-06T03:56:01;16.48;;;10.13;;
56255;SDS011;57229;51.432;-2.598;2022-11-06T03:58:34;17.00;;;10.45;;
56255;SDS011;57229;51.432;-2.598;2022-11-06T04:01:02;18.30;;;9.85;;
56255;SDS011;57229;51.432;-2.598;2022-11-06T04:03:41;21.27;;;10.70;;
56255;SDS011;57229;51.432;-2.598;2022-11-06T04:06:22;15.05;;;9.73;;
56255;SDS011;57229;51.432;-2.598;2022-11-06T04:09:08;19.20;;;10.48;;
56255;SDS011;57229;51.432;-2.598;2022-11-06T04:11:55;17.08;;;9.63;;
56255;SDS011;57229;51.432;-2.598;2022-11-06T04:14:44;13.68;;;9.00;;
56255;SDS011;57229;51.432;-2.598;2022-11-06T04:17:12;13.93;;;10.25;;
56255;SDS011;57229;51.432;-2.598;2022-11-06T04:19:49;19.40;;;9.68;;
56255;SDS011;57229;51.432;-2.598;2022-11-06T04:25:01;15.38;;;10.00;;
56255;SDS011;57229;51.432;-2.598;2022-11-06T04:30:45;14.40;;;9.43;;
56255;SDS011;57229;51.432;-2.598;2022-11-06T04:44:51;14.90;;;9.48;;
56255;SDS011;57229;51.432;-2.598;2022-11-06T04:47:25;14.25;;;9.88;;
56255;SDS011;57229;51.432;-2.598;2022-11-06T04:49:52;17.50;;;9.40;;
56255;SDS011;57229;51.432;-2.598;2022-11-06T04:52:24;15.60;;;9.63;;
56255;SDS011;57229;51.432;-2.598;2022-11-06T04:54:52;14.18;;;9.25;;
56255;SDS011;57229;51.432;-2.598;2022-11-06T04:57:18;16.23;;;10.00;;
56255;SDS011;57229;51.432;-2.598;2022-11-06T04:59:46;14.57;;;9.45;;
56255;SDS011;57229;51.432;-2.598;2022-11-06T05:02:11;13.02;;;9.07;;
56255;SDS011;57229;51.432;-2.598;2022-11-06T05:04:37;14.57;;;8.68;;
56255;SDS011;57229;51.432;-2.598;2022-11-06T05:07:03;14.48;;;9.48;;
56255;SDS011;57229;51.432;-2.598;2022-11-06T05:09:28;12.52;;;8.88;;
56255;SDS011;57229;51.432;-2.598;2022-11-06T05:11:54;13.82;;;9.70;;
56255;SDS011;57229;51.432;-2.598;2022-11-06T05:14:20;14.27;;;9.40;;
56255;SDS011;57229;51.432;-2.598;2022-11-06T05:16:46;13.18;;;9.02;;
56255;SDS011;57229;51.432;-2.598;2022-11-06T05:19:11;11.95;;;8.70;;
56255;SDS011;57229;51.432;-2.598;2022-11-06T05:21:37;15.68;;;8.98;;
56255;SDS011;57229;51.432;-2.598;2022-11-06T05:24:21;13.80;;;9.30;;
56255;SDS011;57229;51.432;-2.598;2022-11-06T05:26:47;13.13;;;9.32;;
56255;SDS011;57229;51.432;-2.598;2022-11-06T05:29:13;12.75;;;8.45;;
56255;SDS011;57229;51.432;-2.598;2022-11-06T05:31:38;15.30;;;9.80;;
56255;SDS011;57229;51.432;-2.598;2022-11-06T05:34:04;13.80;;;9.30;;
56255;SDS011;57229;51.432;-2.598;2022-11-06T05:36:30;10.20;;;8.40;;
56255;SDS011;57229;51.432;-2.598;2022-11-06T05:38:56;14.63;;;9.13;;
56255;SDS011;57229;51.432;-2.598;2022-11-06T05:41:22;14.95;;;9.15;;
56255;SDS011;57229;51.432;-2.598;2022-11-06T05:43:47;14.98;;;9.40;;
56255;SDS011;57229;51.432;-2.598;2022-11-06T05:46:13;13.35;;;8.85;;
56255;SDS011;57229;51.432;-2.598;2022-11-06T05:48:39;12.05;;;8.90;;
56255;SDS011;57229;51.432;-2.598;2022-11-06T05:51:05;13.93;;;8.57;;
56255;SDS011;57229;51.432;-2.598;2022-11-06T05:53:32;13.13;;;8.73;;
56255;SDS011;57229;51.432;-2.598;2022-11-06T05:55:59;12.35;;;8.82;;
56255;SDS011;57229;51.432;-2.598;2022-11-06T05:58:25;12.77;;;8.63;;
56255;SDS011;57229;51.432;-2.598;2022-11-06T06:00:53;13.20;;;9.23;;
56255;SDS011;57229;51.432;-2.598;2022-11-06T06:03:19;12.32;;;8.30;;
56255;SDS011;57229;51.432;-2.598;2022-11-06T06:05:45;11.93;;;8.23;;
56255;SDS011;57229;51.432;-2.598;2022-11-06T06:08:11;11.68;;;8.63;;
56255;SDS011;57229;51.432;-2.598;2022-11-06T06:10:41;12.00;;;8.20;;
56255;SDS011;57229;51.432;-2.598;2022-11-06T06:13:10;13.40;;;8.75;;
56255;SDS011;57229;51.432;-2.598;2022-11-06T06:15:37;13.27;;;8.35;;
56255;SDS011;57229;51.432;-2.598;2022-11-06T06:18:03;12.80;;;8.32;;
56255;SDS011;57229;51.432;-2.598;2022-11-06T06:20:30;11.80;;;8.13;;
56255;SDS011;57229;51.432;-2.598;2022-11-06T06:22:56;14.40;;;8.77;;
56255;SDS011;57229;51.432;-2.598;2022-11-06T06:25:23;11.45;;;8.38;;
56255;SDS011;57229;51.432;-2.598;2022-11-06T06:27:50;12.32;;;8.52;;
56255;SDS011;57229;51.432;-2.598;2022-11-06T06:30:16;12.82;;;8.20;;
56255;SDS011;57229;51.432;-2.598;2022-11-06T06:32:43;14.20;;;8.38;;
56255;SDS011;57229;51.432;-2.598;2022-11-06T06:35:08;14.93;;;9.15;;
56255;SDS011;57229;51.432;-2.598;2022-11-06T06:37:35;13.45;;;8.55;;
56255;SDS011;57229;51.432;-2.598;2022-11-06T06:40:01;17.38;;;9.05;;
56255;SDS011;57229;51.432;-2.598;2022-11-06T06:42:27;12.73;;;9.15;;
56255;SDS011;57229;51.432;-2.598;2022-11-06T06:44:53;11.85;;;8.45;;
56255;SDS011;57229;51.432;-2.598;2022-11-06T06:47:19;11.38;;;8.63;;
56255;SDS011;57229;51.432;-2.598;2022-11-06T06:49:44;12.52;;;8.30;;
56255;SDS011;57229;51.432;-2.598;2022-11-06T06:52:10;13.60;;;9.02;;
56255;SDS011;57229;51.432;-2.598;2022-11-06T06:54:36;15.35;;;8.57;;
56255;SDS011;57229;51.432;-2.598;2022-11-06T06:57:07;15.80;;;9.02;;
56255;SDS011;57229;51.432;-2.598;2022-11-06T06:59:33;11.50;;;8.40;;
56255;SDS011;57229;51.432;-2.598;2022-11-06T07:01:59;12.13;;;8.15;;
56255;SDS011;57229;51.432;-2.598;2022-11-06T07:04:25;13.25;;;8.60;;
56255;SDS011;57229;51.432;-2.598;2022-11-06T07:06:54;16.35;;;8.63;;
56255;SDS011;57229;51.432;-2.598;2022-11-06T07:09:23;11.77;;;8.25;;
56255;SDS011;57229;51.432;-2.598;2022-11-06T07:11:49;12.02;;;8.43;;
56255;SDS011;57229;51.432;-2.598;2022-11-06T07:14:15;15.18;;;8.88;;
56255;SDS011;57229;51.432;-2.598;2022-11-06T07:16:40;12.18;;;8.05;;
56255;SDS011;57229;51.432;-2.598;2022-11-06T07:19:15;13.23;;;8.30;;
56255;SDS011;57229;51.432;-2.598;2022-11-06T07:21:41;14.63;;;8.50;;
56255;SDS011;57229;51.432;-2.598;2022-11-06T07:24:07;14.18;;;8.45;;
56255;SDS011;57229;51.432;-2.598;2022-11-06T07:26:33;13.57;;;8.05;;
56255;SDS011;57229;51.432;-2.598;2022-11-06T07:28:59;15.73;;;8.18;;
56255;SDS011;57229;51.432;-2.598;2022-11-06T07:31:24;13.65;;;8.13;;
56255;SDS011;57229;51.432;-2.598;2022-11-06T07:33:50;14.13;;;8.07;;
56255;SDS011;57229;51.432;-2.598;2022-11-06T07:36:16;13.38;;;8.35;;
56255;SDS011;57229;51.432;-2.598;2022-11-06T07:38:42;12.70;;;8.10;;
56255;SDS011;57229;51.432;-2.598;2022-11-06T07:41:11;12.35;;;8.25;;
56255;SDS011;57229;51.432;-2.598;2022-11-06T07:43:38;12.25;;;7.97;;
56255;SDS011;57229;51.432;-2.598;2022-11-06T07:46:13;11.52;;;8.45;;
56255;SDS011;57229;51.432;-2.598;2022-11-06T07:48:39;12.63;;;8.18;;
56255;SDS011;57229;51.432;-2.598;2022-11-06T07:51:05;12.70;;;8.10;;
56255;SDS011;57229;51.432;-2.598;2022-11-06T07:53:33;13.13;;;8.05;;
56255;SDS011;57229;51.432;-2.598;2022-11-06T07:55:59;11.07;;;7.90;;
56255;SDS011;57229;51.432;-2.598;2022-11-06T07:58:25;12.52;;;8.82;;
56255;SDS011;57229;51.432;-2.598;2022-11-06T08:00:55;10.10;;;7.78;;
56255;SDS011;57229;51.432;-2.598;2022-11-06T08:03:22;10.65;;;7.88;;
56255;SDS011;57229;51.432;-2.598;2022-11-06T08:05:48;11.40;;;8.20;;
56255;SDS011;57229;51.432;-2.598;2022-11-06T08:08:14;13.48;;;7.57;;
56255;SDS011;57229;51.432;-2.598;2022-11-06T08:10:40;14.07;;;7.47;;
56255;SDS011;57229;51.432;-2.598;2022-11-06T08:13:14;11.77;;;7.20;;
56255;SDS011;57229;51.432;-2.598;2022-11-06T08:15:41;11.63;;;8.15;;
56255;SDS011;57229;51.432;-2.598;2022-11-06T08:18:08;11.90;;;8.27;;
56255;SDS011;57229;51.432;-2.598;2022-11-06T08:20:35;14.85;;;7.82;;
56255;SDS011;57229;51.432;-2.598;2022-11-06T08:23:05;12.60;;;7.85;;
56255;SDS011;57229;51.432;-2.598;2022-11-06T08:25:34;12.50;;;8.40;;
56255;SDS011;57229;51.432;-2.598;2022-11-06T08:28:00;12.25;;;8.27;;
56255;SDS011;57229;51.432;-2.598;2022-11-06T08:30:27;9.73;;;7.95;;
56255;SDS011;57229;51.432;-2.598;2022-11-06T08:32:54;13.00;;;7.80;;
56255;SDS011;57229;51.432;-2.598;2022-11-06T08:35:24;10.60;;;7.70;;
56255;SDS011;57229;51.432;-2.598;2022-11-06T08:37:50;12.73;;;8.30;;
56255;SDS011;57229;51.432;-2.598;2022-11-06T08:40:15;13.75;;;8.00;;
56255;SDS011;57229;51.432;-2.598;2022-11-06T08:42:41;12.07;;;8.00;;
56255;SDS011;57229;51.432;-2.598;2022-11-06T08:45:07;11.75;;;8.07;;
56255;SDS011;57229;51.432;-2.598;2022-11-06T08:47:36;17.45;;;8.30;;
56255;SDS011;57229;51.432;-2.598;2022-11-06T08:50:02;15.60;;;8.45;;
56255;SDS011;57229;51.432;-2.598;2022-11-06T08:52:28;12.50;;;8.25;;
56255;SDS011;57229;51.432;-2.598;2022-11-06T08:54:53;11.77;;;7.90;;
56255;SDS011;57229;51.432;-2.598;2022-11-06T08:57:19;12.25;;;7.45;;
56255;SDS011;57229;51.432;-2.598;2022-11-06T08:59:45;14.10;;;7.70;;
56255;SDS011;57229;51.432;-2.598;2022-11-06T09:02:16;13.45;;;7.50;;
56255;SDS011;57229;51.432;-2.598;2022-11-06T09:04:42;10.55;;;7.10;;
56255;SDS011;57229;51.432;-2.598;2022-11-06T09:07:07;11.15;;;7.75;;
56255;SDS011;57229;51.432;-2.598;2022-11-06T09:09:33;9.43;;;7.43;;
56255;SDS011;57229;51.432;-2.598;2022-11-06T09:14:34;11.30;;;7.37;;
56255;SDS011;57229;51.432;-2.598;2022-11-06T09:17:04;13.90;;;7.88;;
56255;SDS011;57229;51.432;-2.598;2022-11-06T09:19:30;13.80;;;7.25;;
56255;SDS011;57229;51.432;-2.598;2022-11-06T09:21:55;12.93;;;7.25;;
56255;SDS011;57229;51.432;-2.598;2022-11-06T09:24:21;13.90;;;8.13;;
56255;SDS011;57229;51.432;-2.598;2022-11-06T09:26:49;13.95;;;7.05;;
56255;SDS011;57229;51.432;-2.598;2022-11-06T09:29:15;10.25;;;7.65;;
56255;SDS011;57229;51.432;-2.598;2022-11-06T09:31:41;13.40;;;7.65;;
56255;SDS011;57229;51.432;-2.598;2022-11-06T09:34:10;15.93;;;8.18;;
56255;SDS011;57229;51.432;-2.598;2022-11-06T09:36:36;11.15;;;7.68;;
56255;SDS011;57229;51.432;-2.598;2022-11-06T09:39:02;13.10;;;8.50;;
56255;SDS011;57229;51.432;-2.598;2022-11-06T09:41:44;13.98;;;8.40;;
56255;SDS011;57229;51.432;-2.598;2022-11-06T09:47:03;16.50;;;7.95;;
56255;SDS011;57229;51.432;-2.598;2022-11-06T09:49:39;12.55;;;7.65;;
56255;SDS011;57229;51.432;-2.598;2022-11-06T09:57:36;20.75;;;6.65;;
56255;SDS011;57229;51.432;-2.598;2022-11-06T10:00:07;11.68;;;6.60;;
56255;SDS011;57229;51.432;-2.598;2022-11-06T10:02:39;11.98;;;6.45;;
56255;SDS011;57229;51.432;-2.598;2022-11-06T10:05:33;11.95;;;6.57;;
56255;SDS011;57229;51.432;-2.598;2022-11-06T10:08:05;11.05;;;7.13;;
56255;SDS011;57229;51.432;-2.598;2022-11-06T10:18:50;10.90;;;6.57;;
56255;SDS011;57229;51.432;-2.598;2022-11-06T10:21:39;11.90;;;6.80;;
56255;SDS011;57229;51.432;-2.598;2022-11-06T10:24:22;11.43;;;6.30;;
56255;SDS011;57229;51.432;-2.598;2022-11-06T10:26:55;10.35;;;5.97;;
56255;SDS011;57229;51.432;-2.598;2022-11-06T10:29:45;14.70;;;6.43;;
56255;SDS011;57229;51.432;-2.598;2022-11-06T10:35:16;9.18;;;5.68;;
56255;SDS011;57229;51.432;-2.598;2022-11-06T10:40:33;8.93;;;5.45;;
56255;SDS011;57229;51.432;-2.598;2022-11-06T10:46:03;12.30;;;6.13;;
56255;SDS011;57229;51.432;-2.598;2022-11-06T10:48:31;14.18;;;5.40;;
56255;SDS011;57229;51.432;-2.598;2022-11-06T10:53:37;9.13;;;5.65;;
56255;SDS011;57229;51.432;-2.598;2022-11-06T10:59:03;13.45;;;5.35;;
56255;SDS011;57229;51.432;-2.598;2022-11-06T11:01:29;13.77;;;5.38;;
56255;SDS011;57229;51.432;-2.598;2022-11-06T11:03:55;11.45;;;5.35;;
56255;SDS011;57229;51.432;-2.598;2022-11-06T11:06:23;12.50;;;5.30;;
56255;SDS011;57229;51.432;-2.598;2022-11-06T11:08:50;9.00;;;4.93;;
56255;SDS011;57229;51.432;-2.598;2022-11-06T11:11:23;9.90;;;5.03;;
56255;SDS011;57229;51.432;-2.598;2022-11-06T11:17:00;8.30;;;4.65;;
56255;SDS011;57229;51.432;-2.598;2022-11-06T11:21:57;10.57;;;5.28;;
56255;SDS011;57229;51.432;-2.598;2022-11-06T11:24:25;9.40;;;4.80;;
56255;SDS011;57229;51.432;-2.598;2022-11-06T11:26:52;7.80;;;4.68;;
56255;SDS011;57229;51.432;-2.598;2022-11-06T11:29:40;9.18;;;4.60;;
56255;SDS011;57229;51.432;-2.598;2022-11-06T11:32:11;6.90;;;4.72;;
56255;SDS011;57229;51.432;-2.598;2022-11-06T11:34:43;7.57;;;4.65;;
56255;SDS011;57229;51.432;-2.598;2022-11-06T11:37:27;7.95;;;4.72;;
56255;SDS011;57229;51.432;-2.598;2022-11-06T11:43:24;8.65;;;4.13;;
56255;SDS011;57229;51.432;-2.598;2022-11-06T11:48:41;8.88;;;4.55;;
56255;SDS011;57229;51.432;-2.598;2022-11-06T11:53:51;6.30;;;4.20;;
56255;SDS011;57229;51.432;-2.598;2022-11-06T11:56:30;5.95;;;4.03;;
56255;SDS011;57229;51.432;-2.598;2022-11-06T11:58:59;7.50;;;3.72;;
56255;SDS011;57229;51.432;-2.598;2022-11-06T12:01:36;7.35;;;4.00;;
56255;SDS011;57229;51.432;-2.598;2022-11-06T12:04:08;5.53;;;3.63;;
56255;SDS011;57229;51.432;-2.598;2022-11-06T12:06:52;6.57;;;3.88;;
56255;SDS011;57229;51.432;-2.598;2022-11-06T12:09:18;6.78;;;3.95;;
56255;SDS011;57229;51.432;-2.598;2022-11-06T12:11:44;5.97;;;4.07;;
56255;SDS011;57229;51.432;-2.598;2022-11-06T12:14:44;5.57;;;3.78;;
56255;SDS011;57229;51.432;-2.598;2022-11-06T12:17:09;8.63;;;3.90;;
56255;SDS011;57229;51.432;-2.598;2022-11-06T12:19:49;7.30;;;3.83;;
56255;SDS011;57229;51.432;-2.598;2022-11-06T12:22:24;5.38;;;3.40;;
56255;SDS011;57229;51.432;-2.598;2022-11-06T12:27:44;5.47;;;3.50;;
56255;SDS011;57229;51.432;-2.598;2022-11-06T12:30:16;7.50;;;3.40;;
56255;SDS011;57229;51.432;-2.598;2022-11-06T12:35:30;7.55;;;3.58;;
56255;SDS011;57229;51.432;-2.598;2022-11-06T12:41:08;4.10;;;3.35;;
56255;SDS011;57229;51.432;-2.598;2022-11-06T12:43:40;3.95;;;3.25;;
56255;SDS011;57229;51.432;-2.598;2022-11-06T12:46:35;4.20;;;3.00;;
56255;SDS011;57229;51.432;-2.598;2022-11-06T12:52:00;5.53;;;3.28;;
56255;SDS011;57229;51.432;-2.598;2022-11-06T13:12:42;4.55;;;3.22;;
56255;SDS011;57229;51.432;-2.598;2022-11-06T13:22:56;4.03;;;3.05;;
56255;SDS011;57229;51.432;-2.598;2022-11-06T13:25:31;4.30;;;3.03;;
56255;SDS011;57229;51.432;-2.598;2022-11-06T13:28:26;4.47;;;3.10;;
56255;SDS011;57229;51.432;-2.598;2022-11-06T13:30:58;3.67;;;2.72;;
56255;SDS011;57229;51.432;-2.598;2022-11-06T13:33:29;4.47;;;3.20;;
56255;SDS011;57229;51.432;-2.598;2022-11-06T13:36:02;9.65;;;3.00;;
56255;SDS011;57229;51.432;-2.598;2022-11-06T13:38:34;4.32;;;2.80;;
56255;SDS011;57229;51.432;-2.598;2022-11-06T13:41:04;3.58;;;2.70;;
56255;SDS011;57229;51.432;-2.598;2022-11-06T13:43:47;3.28;;;2.90;;
56255;SDS011;57229;51.432;-2.598;2022-11-06T13:52:21;4.45;;;2.67;;
56255;SDS011;57229;51.432;-2.598;2022-11-06T14:00:39;4.65;;;3.22;;
56255;SDS011;57229;51.432;-2.598;2022-11-06T14:11:05;8.85;;;3.90;;
56255;SDS011;57229;51.432;-2.598;2022-11-06T14:13:56;6.53;;;4.18;;
56255;SDS011;57229;51.432;-2.598;2022-11-06T14:16:34;11.18;;;5.32;;
56255;SDS011;57229;51.432;-2.598;2022-11-06T14:21:45;10.02;;;5.07;;
56255;SDS011;57229;51.432;-2.598;2022-11-06T14:26:46;11.05;;;5.18;;
56255;SDS011;57229;51.432;-2.598;2022-11-06T14:32:04;11.13;;;5.10;;
56255;SDS011;57229;51.432;-2.598;2022-11-06T14:34:48;12.68;;;4.90;;
56255;SDS011;57229;51.432;-2.598;2022-11-06T14:42:30;10.10;;;4.90;;
56255;SDS011;57229;51.432;-2.598;2022-11-06T14:55:42;22.42;;;5.30;;
56255;SDS011;57229;51.432;-2.598;2022-11-06T15:03:28;9.45;;;4.97;;
56255;SDS011;57229;51.432;-2.598;2022-11-06T15:06:00;7.80;;;4.40;;
56255;SDS011;57229;51.432;-2.598;2022-11-06T15:16:33;8.88;;;4.47;;
56255;SDS011;57229;51.432;-2.598;2022-11-06T15:19:26;9.05;;;4.57;;
56255;SDS011;57229;51.432;-2.598;2022-11-06T15:27:56;8.73;;;4.13;;
56255;SDS011;57229;51.432;-2.598;2022-11-06T15:30:28;8.75;;;4.20;;
56255;SDS011;57229;51.432;-2.598;2022-11-06T15:33:02;6.35;;;3.75;;
56255;SDS011;57229;51.432;-2.598;2022-11-06T15:35:34;6.80;;;3.50;;
56255;SDS011;57229;51.432;-2.598;2022-11-06T15:38:09;6.38;;;3.75;;
56255;SDS011;57229;51.432;-2.598;2022-11-06T15:40:40;8.55;;;4.28;;
56255;SDS011;57229;51.432;-2.598;2022-11-06T15:46:45;6.57;;;3.20;;
56255;SDS011;57229;51.432;-2.598;2022-11-06T15:49:19;9.82;;;3.88;;
56255;SDS011;57229;51.432;-2.598;2022-11-06T15:57:07;10.55;;;3.38;;
56255;SDS011;57229;51.432;-2.598;2022-11-06T15:59:44;10.15;;;4.07;;
56255;SDS011;57229;51.432;-2.598;2022-11-06T16:02:14;11.98;;;3.47;;
56255;SDS011;57229;51.432;-2.598;2022-11-06T16:04:44;6.85;;;3.45;;
56255;SDS011;57229;51.432;-2.598;2022-11-06T16:07:10;7.65;;;3.40;;
56255;SDS011;57229;51.432;-2.598;2022-11-06T16:09:37;10.70;;;3.50;;
56255;SDS011;57229;51.432;-2.598;2022-11-06T16:12:06;9.32;;;3.40;;
56255;SDS011;57229;51.432;-2.598;2022-11-06T16:14:40;6.47;;;3.15;;
56255;SDS011;57229;51.432;-2.598;2022-11-06T16:17:16;6.85;;;2.90;;
56255;SDS011;57229;51.432;-2.598;2022-11-06T16:19:47;8.25;;;3.00;;
56255;SDS011;57229;51.432;-2.598;2022-11-06T16:22:18;8.73;;;3.22;;
56255;SDS011;57229;51.432;-2.598;2022-11-06T16:27:16;8.52;;;3.20;;
56255;SDS011;57229;51.432;-2.598;2022-11-06T16:29:46;8.60;;;3.38;;
56255;SDS011;57229;51.432;-2.598;2022-11-06T16:32:18;7.65;;;2.88;;
56255;SDS011;57229;51.432;-2.598;2022-11-06T16:34:46;9.82;;;3.08;;
56255;SDS011;57229;51.432;-2.598;2022-11-06T16:42:26;7.68;;;3.20;;
56255;SDS011;57229;51.432;-2.598;2022-11-06T16:50:46;4.53;;;3.05;;
56255;SDS011;57229;51.432;-2.598;2022-11-06T16:53:20;6.85;;;3.00;;
56255;SDS011;57229;51.432;-2.598;2022-11-06T16:58:31;8.68;;;3.53;;
56255;SDS011;57229;51.432;-2.598;2022-11-06T17:01:03;8.45;;;3.08;;
56255;SDS011;57229;51.432;-2.598;2022-11-06T17:03:44;5.63;;;2.75;;
56255;SDS011;57229;51.432;-2.598;2022-11-06T17:06:20;5.65;;;2.78;;
56255;SDS011;57229;51.432;-2.598;2022-11-06T17:09:04;10.65;;;3.90;;
56255;SDS011;57229;51.432;-2.598;2022-11-06T17:11:57;5.88;;;2.80;;
56255;SDS011;57229;51.432;-2.598;2022-11-06T17:14:24;8.82;;;3.20;;
56255;SDS011;57229;51.432;-2.598;2022-11-06T17:16:51;5.40;;;2.90;;
56255;SDS011;57229;51.432;-2.598;2022-11-06T17:19:20;5.63;;;2.88;;
56255;SDS011;57229;51.432;-2.598;2022-11-06T17:21:49;7.63;;;3.13;;
56255;SDS011;57229;51.432;-2.598;2022-11-06T17:24:18;7.90;;;3.47;;
56255;SDS011;57229;51.432;-2.598;2022-11-06T17:26:45;7.05;;;4.45;;
56255;SDS011;57229;51.432;-2.598;2022-11-06T17:29:14;16.88;;;6.88;;
56255;SDS011;57229;51.432;-2.598;2022-11-06T17:31:40;26.08;;;9.18;;
56255;SDS011;57229;51.432;-2.598;2022-11-06T17:34:05;30.65;;;11.30;;
56255;SDS011;57229;51.432;-2.598;2022-11-06T17:36:31;25.98;;;12.27;;
56255;SDS011;57229;51.432;-2.598;2022-11-06T17:38:58;31.25;;;12.95;;
56255;SDS011;57229;51.432;-2.598;2022-11-06T17:41:27;30.52;;;13.10;;
56255;SDS011;57229;51.432;-2.598;2022-11-06T17:44:08;27.17;;;13.50;;
56255;SDS011;57229;51.432;-2.598;2022-11-06T17:46:40;35.78;;;13.25;;
56255;SDS011;57229;51.432;-2.598;2022-11-06T17:49:08;32.75;;;13.52;;
56255;SDS011;57229;51.432;-2.598;2022-11-06T17:51:38;29.42;;;13.65;;
56255;SDS011;57229;51.432;-2.598;2022-11-06T17:54:25;32.92;;;13.45;;
56255;SDS011;57229;51.432;-2.598;2022-11-06T17:57:08;27.40;;;12.88;;
56255;SDS011;57229;51.432;-2.598;2022-11-06T17:59:34;31.25;;;12.00;;
56255;SDS011;57229;51.432;-2.598;2022-11-06T18:02:03;30.30;;;12.50;;
56255;SDS011;57229;51.432;-2.598;2022-11-06T18:04:31;24.73;;;11.65;;
56255;SDS011;57229;51.432;-2.598;2022-11-06T18:07:00;19.85;;;11.32;;
56255;SDS011;57229;51.432;-2.598;2022-11-06T18:09:26;23.60;;;11.70;;
56255;SDS011;57229;51.432;-2.598;2022-11-06T18:11:55;35.28;;;10.90;;
56255;SDS011;57229;51.432;-2.598;2022-11-06T18:17:19;28.48;;;11.05;;
56255;SDS011;57229;51.432;-2.598;2022-11-06T18:19:57;18.45;;;9.80;;
56255;SDS011;57229;51.432;-2.598;2022-11-06T18:22:23;25.60;;;9.68;;
56255;SDS011;57229;51.432;-2.598;2022-11-06T18:24:49;21.85;;;9.40;;
56255;SDS011;57229;51.432;-2.598;2022-11-06T18:27:20;18.75;;;9.82;;
56255;SDS011;57229;51.432;-2.598;2022-11-06T18:29:46;18.42;;;9.23;;
56255;SDS011;57229;51.432;-2.598;2022-11-06T18:32:15;23.17;;;9.63;;
56255;SDS011;57229;51.432;-2.598;2022-11-06T18:35:02;16.98;;;7.93;;
56255;SDS011;57229;51.432;-2.598;2022-11-06T18:37:28;16.45;;;8.88;;
56255;SDS011;57229;51.432;-2.598;2022-11-06T18:39:58;22.02;;;8.80;;
56255;SDS011;57229;51.432;-2.598;2022-11-06T18:42:26;15.55;;;7.85;;
56255;SDS011;57229;51.432;-2.598;2022-11-06T18:44:58;13.20;;;7.25;;
56255;SDS011;57229;51.432;-2.598;2022-11-06T18:47:26;18.17;;;8.02;;
56255;SDS011;57229;51.432;-2.598;2022-11-06T18:50:01;14.82;;;7.53;;
56255;SDS011;57229;51.432;-2.598;2022-11-06T18:52:30;13.27;;;7.78;;
56255;SDS011;57229;51.432;-2.598;2022-11-06T18:54:58;14.57;;;6.85;;
56255;SDS011;57229;51.432;-2.598;2022-11-06T18:57:27;19.75;;;7.43;;
56255;SDS011;57229;51.432;-2.598;2022-11-06T18:59:54;15.80;;;7.00;;
56255;SDS011;57229;51.432;-2.598;2022-11-06T19:02:23;13.75;;;6.30;;
56255;SDS011;57229;51.432;-2.598;2022-11-06T19:04:48;15.93;;;6.30;;
56255;SDS011;57229;51.432;-2.598;2022-11-06T19:07:16;13.48;;;6.32;;
56255;SDS011;57229;51.432;-2.598;2022-11-06T19:09:45;12.68;;;6.05;;
56255;SDS011;57229;51.432;-2.598;2022-11-06T19:12:10;13.00;;;6.32;;
56255;SDS011;57229;51.432;-2.598;2022-11-06T19:14:36;13.18;;;5.78;;
56255;SDS011;57229;51.432;-2.598;2022-11-06T19:17:02;12.40;;;6.28;;
56255;SDS011;57229;51.432;-2.598;2022-11-06T19:19:31;12.35;;;5.88;;
56255;SDS011;57229;51.432;-2.598;2022-11-06T19:21:57;11.40;;;6.22;;
56255;SDS011;57229;51.432;-2.598;2022-11-06T19:24:25;10.82;;;5.70;;
56255;SDS011;57229;51.432;-2.598;2022-11-06T19:26:51;9.88;;;5.25;;
56255;SDS011;57229;51.432;-2.598;2022-11-06T19:29:20;12.95;;;5.22;;
56255;SDS011;57229;51.432;-2.598;2022-11-06T19:31:48;10.25;;;5.30;;
56255;SDS011;57229;51.432;-2.598;2022-11-06T19:34:19;14.50;;;5.18;;
56255;SDS011;57229;51.432;-2.598;2022-11-06T19:36:49;10.65;;;5.28;;
56255;SDS011;57229;51.432;-2.598;2022-11-06T19:39:15;12.98;;;5.30;;
56255;SDS011;57229;51.432;-2.598;2022-11-06T19:41:41;14.98;;;5.50;;
56255;SDS011;57229;51.432;-2.598;2022-11-06T19:47:20;11.18;;;4.82;;
56255;SDS011;57229;51.432;-2.598;2022-11-06T19:50:04;11.57;;;4.32;;
56255;SDS011;57229;51.432;-2.598;2022-11-06T20:01:52;12.38;;;4.40;;
56255;SDS011;57229;51.432;-2.598;2022-11-06T20:04:17;14.40;;;4.70;;
56255;SDS011;57229;51.432;-2.598;2022-11-06T20:06:47;6.97;;;4.40;;
56255;SDS011;57229;51.432;-2.598;2022-11-06T20:09:12;9.25;;;4.13;;
56255;SDS011;57229;51.432;-2.598;2022-11-06T20:11:38;8.32;;;3.53;;
56255;SDS011;57229;51.432;-2.598;2022-11-06T20:14:04;9.15;;;4.10;;
56255;SDS011;57229;51.432;-2.598;2022-11-06T20:16:32;10.38;;;4.18;;
56255;SDS011;57229;51.432;-2.598;2022-11-06T20:18:58;9.45;;;4.00;;
56255;SDS011;57229;51.432;-2.598;2022-11-06T20:21:24;8.82;;;3.97;;
56255;SDS011;57229;51.432;-2.598;2022-11-06T20:23:52;8.70;;;3.88;;
56255;SDS011;57229;51.432;-2.598;2022-11-06T20:26:19;10.20;;;3.92;;
56255;SDS011;57229;51.432;-2.598;2022-11-06T20:28:53;10.38;;;4.28;;
56255;SDS011;57229;51.432;-2.598;2022-11-06T20:31:20;10.38;;;4.45;;